createdAt,value
2017-06-12T00:00:04.014Z,20.46
2017-06-12T00:00:08.344Z,20.51
2017-06-12T00:00:12.778Z,20.54
2017-06-12T00:00:17.202Z,20.56
2017-06-12T00:00:21.626Z,20.53
2017-06-12T00:00:25.931Z,20.56
2017-06-12T00:00:30.358Z,20.5
2017-06-12T00:00:34.780Z,20.5
2017-06-12T00:00:39.210Z,20.5
2017-06-12T00:00:43.634Z,20.5
2017-06-12T00:00:48.052Z,20.51
2017-06-12T00:00:52.472Z,20.51
2017-06-12T00:00:56.896Z,20.48
2017-06-12T00:01:01.207Z,20.51
2017-06-12T00:01:05.786Z,20.48
2017-06-12T00:01:10.206Z,20.48
2017-06-12T00:01:14.624Z,20.48
2017-06-12T00:01:18.927Z,20.57
2017-06-12T00:01:23.112Z,20.58
2017-06-12T00:01:27.420Z,20.51
2017-06-12T00:01:31.872Z,20.48
2017-06-12T00:01:36.293Z,20.5
2017-06-12T00:01:40.715Z,20.51
2017-06-12T00:01:45.138Z,20.48
2017-06-12T00:01:49.562Z,20.53
2017-06-12T00:01:53.639Z,20.51
2017-06-12T00:01:58.064Z,20.5
2017-06-12T00:02:02.642Z,20.5
2017-06-12T00:02:06.946Z,20.51
2017-06-12T00:02:11.365Z,20.51
2017-06-12T00:02:15.557Z,20.51
2017-06-12T00:02:19.981Z,20.46
2017-06-12T00:02:24.284Z,20.5
2017-06-12T00:02:28.710Z,20.48
2017-06-12T00:02:33.134Z,20.5
2017-06-12T00:02:37.551Z,20.53
2017-06-12T00:02:41.747Z,20.53
2017-06-12T00:02:46.179Z,20.5
2017-06-12T00:02:50.598Z,20.54
2017-06-12T00:02:54.906Z,20.51
2017-06-12T00:02:59.089Z,20.51
2017-06-12T00:03:03.511Z,20.53
2017-06-12T00:03:07.942Z,20.5
2017-06-12T00:03:12.365Z,20.56
2017-06-12T00:03:16.786Z,20.48
2017-06-12T00:03:21.096Z,20.53
2017-06-12T00:03:25.398Z,20.48
2017-06-12T00:03:29.463Z,20.5
2017-06-12T00:03:33.891Z,20.53
2017-06-12T00:03:38.348Z,20.5
2017-06-12T00:03:42.652Z,20.51
2017-06-12T00:03:47.079Z,20.46
2017-06-12T00:03:51.499Z,20.48
2017-06-12T00:03:55.930Z,20.51
2017-06-12T00:04:00.361Z,20.51
2017-06-12T00:04:04.959Z,20.51
2017-06-12T00:04:09.266Z,20.42
2017-06-12T00:04:13.687Z,20.48
2017-06-12T00:04:17.993Z,20.5
2017-06-12T00:04:22.422Z,20.51
2017-06-12T00:04:26.729Z,20.48
2017-06-12T00:04:31.056Z,20.5
2017-06-12T00:04:35.362Z,20.5
2017-06-12T00:04:39.665Z,20.51
2017-06-12T00:04:44.089Z,20.57
2017-06-12T00:04:48.398Z,20.48
2017-06-12T00:04:52.825Z,20.48
2017-06-12T00:04:57.246Z,20.48
2017-06-12T00:05:01.857Z,20.48
2017-06-12T00:05:06.280Z,20.46
2017-06-12T00:05:10.705Z,20.5
2017-06-12T00:05:15.161Z,20.48
2017-06-12T00:05:19.585Z,20.53
2017-06-12T00:05:23.891Z,20.46
2017-06-12T00:05:28.202Z,20.51
2017-06-12T00:05:32.624Z,20.44
2017-06-12T00:05:36.935Z,20.46
2017-06-12T00:05:41.240Z,20.46
2017-06-12T00:05:45.668Z,20.51
2017-06-12T00:05:50.093Z,20.53
2017-06-12T00:05:54.400Z,20.46
2017-06-12T00:05:58.828Z,20.48
2017-06-12T00:06:03.250Z,20.53
2017-06-12T00:06:07.685Z,20.48
2017-06-12T00:06:12.109Z,20.5
2017-06-12T00:06:16.415Z,20.51
2017-06-12T00:06:20.718Z,20.48
2017-06-12T00:06:25.017Z,20.46
2017-06-12T00:06:29.441Z,20.46
2017-06-12T00:06:33.879Z,20.48
2017-06-12T00:06:38.304Z,20.5
2017-06-12T00:06:42.743Z,20.42
2017-06-12T00:06:47.166Z,20.48
2017-06-12T00:06:51.588Z,20.51
2017-06-12T00:06:56.019Z,20.44
2017-06-12T00:07:00.322Z,20.46
2017-06-12T00:07:04.805Z,20.44
2017-06-12T00:07:09.113Z,20.5
2017-06-12T00:07:13.532Z,20.48
2017-06-12T00:07:17.962Z,20.48
2017-06-12T00:07:22.159Z,20.46
2017-06-12T00:07:26.580Z,20.53
2017-06-12T00:07:30.883Z,20.53
2017-06-12T00:07:35.186Z,20.5
2017-06-12T00:07:39.492Z,20.46
2017-06-12T00:07:43.924Z,20.51
2017-06-12T00:07:48.348Z,20.46
2017-06-12T00:07:52.652Z,20.51
2017-06-12T00:07:56.956Z,20.5
2017-06-12T00:08:01.260Z,20.46
2017-06-12T00:08:05.566Z,20.53
2017-06-12T00:08:09.883Z,20.48
2017-06-12T00:08:14.307Z,20.48
2017-06-12T00:08:18.727Z,20.51
2017-06-12T00:08:23.032Z,20.5
2017-06-12T00:08:27.223Z,20.44
2017-06-12T00:08:31.524Z,20.41
2017-06-12T00:08:35.834Z,20.46
2017-06-12T00:08:40.138Z,20.48
2017-06-12T00:08:44.558Z,20.5
2017-06-12T00:08:48.977Z,20.46
2017-06-12T00:08:53.400Z,20.46
2017-06-12T00:08:57.733Z,20.48
2017-06-12T00:09:02.236Z,20.51
2017-06-12T00:09:06.661Z,20.46
2017-06-12T00:09:10.960Z,20.51
2017-06-12T00:09:15.382Z,20.48
2017-06-12T00:09:19.806Z,20.46
2017-06-12T00:09:24.118Z,20.51
2017-06-12T00:09:28.423Z,20.5
2017-06-12T00:09:32.855Z,20.38
2017-06-12T00:09:37.042Z,20.46
2017-06-12T00:09:41.470Z,20.48
2017-06-12T00:09:45.908Z,20.46
2017-06-12T00:09:50.328Z,20.48
2017-06-12T00:09:54.745Z,20.35
2017-06-12T00:09:59.171Z,20.41
2017-06-12T00:10:03.475Z,20.46
2017-06-12T00:10:07.788Z,20.46
2017-06-12T00:10:12.251Z,20.44
2017-06-12T00:10:16.673Z,20.44
2017-06-12T00:10:21.094Z,20.5
2017-06-12T00:10:25.403Z,20.33
2017-06-12T00:10:29.707Z,20.44
2017-06-12T00:10:34.137Z,20.4
2017-06-12T00:10:38.587Z,20.48
2017-06-12T00:10:43.013Z,20.4
2017-06-12T00:10:47.440Z,20.42
2017-06-12T00:10:51.862Z,20.42
2017-06-12T00:10:56.290Z,20.33
2017-06-12T00:11:00.514Z,20.4
2017-06-12T00:11:04.828Z,20.42
2017-06-12T00:11:09.262Z,20.41
2017-06-12T00:11:13.690Z,20.41
2017-06-12T00:11:17.877Z,20.44
2017-06-12T00:11:22.186Z,20.4
2017-06-12T00:11:26.493Z,20.4
2017-06-12T00:11:30.912Z,20.38
2017-06-12T00:11:35.333Z,20.4
2017-06-12T00:11:39.758Z,20.41
2017-06-12T00:11:44.076Z,20.4
2017-06-12T00:11:48.503Z,20.44
2017-06-12T00:11:52.923Z,20.37
2017-06-12T00:11:57.224Z,20.35
2017-06-12T00:12:01.411Z,20.38
2017-06-12T00:12:05.724Z,20.38
2017-06-12T00:12:10.063Z,20.4
2017-06-12T00:12:14.483Z,20.35
2017-06-12T00:12:18.903Z,20.38
2017-06-12T00:12:23.325Z,20.42
2017-06-12T00:12:27.753Z,20.4
2017-06-12T00:12:32.185Z,20.38
2017-06-12T00:12:36.635Z,20.4
2017-06-12T00:12:40.943Z,20.37
2017-06-12T00:12:45.255Z,20.37
2017-06-12T00:12:49.678Z,20.35
2017-06-12T00:12:53.868Z,20.4
2017-06-12T00:12:58.176Z,20.4
2017-06-12T00:13:02.830Z,20.35
2017-06-12T00:13:07.251Z,20.41
2017-06-12T00:13:11.678Z,20.38
2017-06-12T00:13:16.107Z,20.38
2017-06-12T00:13:20.530Z,20.46
2017-06-12T00:13:24.956Z,20.35
2017-06-12T00:13:29.381Z,20.35
2017-06-12T00:13:33.678Z,20.35
2017-06-12T00:13:38.100Z,20.37
2017-06-12T00:13:42.525Z,20.4
2017-06-12T00:13:46.722Z,20.41
2017-06-12T00:13:51.152Z,20.4
2017-06-12T00:13:55.578Z,20.38
2017-06-12T00:14:00.004Z,20.41
2017-06-12T00:14:04.680Z,20.34
2017-06-12T00:14:09.004Z,20.41
2017-06-12T00:14:13.452Z,20.41
2017-06-12T00:14:17.873Z,20.37
2017-06-12T00:14:22.293Z,20.34
2017-06-12T00:14:26.714Z,20.4
2017-06-12T00:14:31.141Z,20.37
2017-06-12T00:14:35.334Z,20.37
2017-06-12T00:14:39.766Z,20.37
2017-06-12T00:14:44.192Z,20.34
2017-06-12T00:14:48.613Z,20.4
2017-06-12T00:14:53.041Z,20.41
2017-06-12T00:14:57.463Z,20.35
2017-06-12T00:15:01.888Z,20.38
2017-06-12T00:15:06.312Z,20.37
2017-06-12T00:15:10.741Z,20.34
2017-06-12T00:15:15.178Z,20.4
2017-06-12T00:15:19.604Z,20.4
2017-06-12T00:15:24.027Z,20.4
2017-06-12T00:15:28.458Z,20.37
2017-06-12T00:15:32.764Z,20.35
2017-06-12T00:15:37.184Z,20.4
2017-06-12T00:15:41.604Z,20.35
2017-06-12T00:15:45.909Z,20.38
2017-06-12T00:15:50.339Z,20.37
2017-06-12T00:15:54.791Z,20.38
2017-06-12T00:15:59.208Z,20.35
2017-06-12T00:16:03.517Z,20.34
2017-06-12T00:16:07.706Z,20.4
2017-06-12T00:16:12.143Z,20.37
2017-06-12T00:16:16.458Z,20.38
2017-06-12T00:16:20.767Z,20.35
2017-06-12T00:16:25.192Z,20.35
2017-06-12T00:16:29.615Z,20.33
2017-06-12T00:16:33.802Z,20.38
2017-06-12T00:16:38.114Z,20.37
2017-06-12T00:16:42.552Z,20.34
2017-06-12T00:16:46.978Z,20.4
2017-06-12T00:16:51.395Z,20.4
2017-06-12T00:16:55.700Z,20.38
2017-06-12T00:17:00.003Z,20.42
2017-06-12T00:17:04.200Z,20.37
2017-06-12T00:17:08.512Z,20.31
2017-06-12T00:17:12.937Z,20.37
2017-06-12T00:17:17.244Z,20.34
2017-06-12T00:17:21.432Z,20.42
2017-06-12T00:17:25.857Z,20.4
2017-06-12T00:17:30.282Z,20.38
2017-06-12T00:17:34.711Z,20.44
2017-06-12T00:17:39.137Z,20.41
2017-06-12T00:17:43.559Z,20.38
2017-06-12T00:17:47.862Z,20.38
2017-06-12T00:17:52.282Z,20.35
2017-06-12T00:17:56.591Z,20.38
2017-06-12T00:18:01.012Z,20.31
2017-06-12T00:18:05.432Z,20.41
2017-06-12T00:18:09.856Z,20.35
2017-06-12T00:18:14.040Z,20.37
2017-06-12T00:18:18.345Z,20.37
2017-06-12T00:18:22.771Z,20.37
2017-06-12T00:18:27.192Z,20.38
2017-06-12T00:18:31.618Z,20.38
2017-06-12T00:18:35.926Z,20.35
2017-06-12T00:18:40.349Z,20.34
2017-06-12T00:18:44.774Z,20.23
2017-06-12T00:18:49.077Z,20.33
2017-06-12T00:18:53.377Z,20.25
2017-06-12T00:18:57.800Z,20.34
2017-06-12T00:19:01.990Z,20.26
2017-06-12T00:19:06.416Z,20.27
2017-06-12T00:19:10.722Z,20.34
2017-06-12T00:19:14.909Z,20.34
2017-06-12T00:19:19.096Z,20.23
2017-06-12T00:19:23.520Z,20.27
2017-06-12T00:19:27.948Z,20.3
2017-06-12T00:19:32.249Z,20.35
2017-06-12T00:19:36.561Z,20.25
2017-06-12T00:19:40.988Z,20.37
2017-06-12T00:19:45.412Z,20.35
2017-06-12T00:19:49.833Z,20.3
2017-06-12T00:19:54.140Z,20.38
2017-06-12T00:19:58.569Z,20.34
2017-06-12T00:20:02.913Z,20.27
2017-06-12T00:20:07.096Z,20.23
2017-06-12T00:20:11.516Z,20.4
2017-06-12T00:20:15.937Z,20.33
2017-06-12T00:20:20.364Z,20.3
2017-06-12T00:20:24.793Z,20.27
2017-06-12T00:20:29.221Z,20.34
2017-06-12T00:20:33.644Z,20.27
2017-06-12T00:20:37.945Z,20.34
2017-06-12T00:20:42.253Z,20.2
2017-06-12T00:20:46.683Z,20.33
2017-06-12T00:20:50.986Z,20.34
2017-06-12T00:20:55.407Z,20.26
2017-06-12T00:20:59.706Z,20.33
2017-06-12T00:21:04.438Z,20.35
2017-06-12T00:21:08.881Z,20.38
2017-06-12T00:21:13.299Z,20.37
2017-06-12T00:21:17.604Z,20.2
2017-06-12T00:21:22.025Z,20.31
2017-06-12T00:21:26.449Z,20.33
2017-06-12T00:21:30.754Z,20.26
2017-06-12T00:21:35.190Z,20.31
2017-06-12T00:21:39.504Z,20.33
2017-06-12T00:21:43.929Z,20.3
2017-06-12T00:21:48.233Z,20.27
2017-06-12T00:21:52.652Z,20.33
2017-06-12T00:21:56.959Z,20.3
2017-06-12T00:22:01.414Z,20.31
2017-06-12T00:22:05.730Z,20.33
2017-06-12T00:22:10.157Z,20.35
2017-06-12T00:22:14.576Z,20.3
2017-06-12T00:22:18.999Z,20.31
2017-06-12T00:22:23.431Z,20.31
2017-06-12T00:22:27.772Z,20.3
2017-06-12T00:22:32.190Z,20.34
2017-06-12T00:22:36.490Z,20.33
2017-06-12T00:22:40.793Z,20.27
2017-06-12T00:22:45.213Z,20.26
2017-06-12T00:22:49.646Z,20.3
2017-06-12T00:22:54.077Z,20.31
2017-06-12T00:22:58.378Z,20.27
2017-06-12T00:23:02.685Z,20.31
2017-06-12T00:23:07.110Z,20.3
2017-06-12T00:23:11.536Z,20.22
2017-06-12T00:23:15.875Z,20.34
2017-06-12T00:23:20.296Z,20.27
2017-06-12T00:23:24.721Z,20.3
2017-06-12T00:23:29.147Z,20.31
2017-06-12T00:23:33.584Z,20.19
2017-06-12T00:23:37.911Z,20.3
2017-06-12T00:23:42.217Z,20.25
2017-06-12T00:23:46.639Z,20.19
2017-06-12T00:23:50.948Z,20.31
2017-06-12T00:23:55.130Z,20.2
2017-06-12T00:23:59.557Z,20.23
2017-06-12T00:24:04.116Z,20.23
2017-06-12T00:24:08.543Z,20.2
2017-06-12T00:24:12.855Z,20.17
2017-06-12T00:24:17.161Z,20.27
2017-06-12T00:24:21.459Z,20.26
2017-06-12T00:24:25.882Z,20.3
2017-06-12T00:24:30.340Z,20.26
2017-06-12T00:24:34.761Z,20.19
2017-06-12T00:24:39.179Z,20.25
2017-06-12T00:24:43.603Z,20.2
2017-06-12T00:24:48.029Z,20.2
2017-06-12T00:24:52.342Z,20.22
2017-06-12T00:24:56.771Z,20.22
2017-06-12T00:25:01.075Z,20.2
2017-06-12T00:25:05.626Z,20.2
2017-06-12T00:25:10.055Z,20.22
2017-06-12T00:25:14.364Z,20.2
2017-06-12T00:25:18.815Z,20.22
2017-06-12T00:25:23.124Z,20.22
2017-06-12T00:25:27.547Z,20.22
2017-06-12T00:25:31.970Z,20.25
2017-06-12T00:25:36.269Z,20.19
2017-06-12T00:25:40.699Z,20.19
2017-06-12T00:25:44.776Z,20.2
2017-06-12T00:25:49.201Z,20.22
2017-06-12T00:25:53.627Z,20.27
2017-06-12T00:25:58.055Z,20.13
2017-06-12T00:26:02.559Z,20.22
2017-06-12T00:26:06.985Z,20.19
2017-06-12T00:26:11.299Z,20.25
2017-06-12T00:26:15.717Z,20.19
2017-06-12T00:26:20.143Z,20.19
2017-06-12T00:26:24.448Z,20.26
2017-06-12T00:26:28.867Z,20.17
2017-06-12T00:26:33.064Z,20.26
2017-06-12T00:26:37.499Z,20.2
2017-06-12T00:26:41.927Z,20.19
2017-06-12T00:26:46.351Z,20.15
2017-06-12T00:26:50.774Z,20.23
2017-06-12T00:26:55.201Z,20.12
2017-06-12T00:26:59.387Z,20.19
2017-06-12T00:27:03.575Z,20.19
2017-06-12T00:27:07.770Z,20.25
2017-06-12T00:27:12.206Z,20.17
2017-06-12T00:27:16.628Z,20.15
2017-06-12T00:27:21.055Z,20.17
2017-06-12T00:27:25.363Z,20.22
2017-06-12T00:27:29.665Z,20.15
2017-06-12T00:27:34.086Z,20.23
2017-06-12T00:27:38.391Z,20.13
2017-06-12T00:27:42.816Z,20.15
2017-06-12T00:27:47.244Z,20.16
2017-06-12T00:27:51.665Z,20.25
2017-06-12T00:27:56.086Z,20.19
2017-06-12T00:28:00.392Z,20.16
2017-06-12T00:28:04.818Z,20.15
2017-06-12T00:28:09.157Z,20.1
2017-06-12T00:28:13.585Z,20.19
2017-06-12T00:28:18.008Z,20.17
2017-06-12T00:28:22.310Z,20.2
2017-06-12T00:28:26.734Z,20.22
2017-06-12T00:28:31.165Z,20.17
2017-06-12T00:28:35.594Z,20.16
2017-06-12T00:28:40.016Z,20.22
2017-06-12T00:28:44.323Z,20.17
2017-06-12T00:28:48.637Z,20.17
2017-06-12T00:28:53.062Z,20.2
2017-06-12T00:28:57.375Z,20.13
2017-06-12T00:29:01.992Z,20.17
2017-06-12T00:29:06.416Z,20.19
2017-06-12T00:29:10.846Z,20.19
2017-06-12T00:29:15.153Z,20.19
2017-06-12T00:29:19.581Z,20.17
2017-06-12T00:29:24.050Z,20.2
2017-06-12T00:29:28.473Z,20.16
2017-06-12T00:29:32.898Z,20.15
2017-06-12T00:29:37.319Z,20.3
2017-06-12T00:29:41.760Z,20.25
2017-06-12T00:29:46.186Z,20.15
2017-06-12T00:29:50.613Z,20.25
2017-06-12T00:29:54.923Z,20.16
2017-06-12T00:29:59.230Z,20.17
2017-06-12T00:30:03.418Z,20.16
2017-06-12T00:30:07.605Z,20.12
2017-06-12T00:30:11.798Z,20.08
2017-06-12T00:30:16.217Z,20.16
2017-06-12T00:30:20.637Z,20.19
2017-06-12T00:30:25.062Z,20.2
2017-06-12T00:30:29.488Z,20.23
2017-06-12T00:30:33.914Z,20.12
2017-06-12T00:30:38.341Z,20.22
2017-06-12T00:30:42.648Z,20.12
2017-06-12T00:30:47.069Z,20.13
2017-06-12T00:30:51.492Z,20.12
2017-06-12T00:30:55.924Z,20.15
2017-06-12T00:31:00.233Z,20.25
2017-06-12T00:31:04.589Z,20.13
2017-06-12T00:31:09.020Z,20.16
2017-06-12T00:31:13.447Z,20.12
2017-06-12T00:31:17.872Z,20.13
2017-06-12T00:31:22.290Z,20.12
2017-06-12T00:31:26.722Z,20.22
2017-06-12T00:31:31.146Z,20.13
2017-06-12T00:31:35.568Z,20.15
2017-06-12T00:31:39.991Z,20.2
2017-06-12T00:31:44.296Z,20.12
2017-06-12T00:31:48.726Z,20.19
2017-06-12T00:31:53.034Z,20.16
2017-06-12T00:31:57.460Z,20.19
2017-06-12T00:32:01.643Z,20.12
2017-06-12T00:32:05.949Z,20.25
2017-06-12T00:32:10.136Z,20.13
2017-06-12T00:32:14.560Z,20.12
2017-06-12T00:32:18.756Z,20.17
2017-06-12T00:32:23.173Z,20.1
2017-06-12T00:32:27.592Z,20.13
2017-06-12T00:32:32.013Z,20.19
2017-06-12T00:32:36.438Z,20.16
2017-06-12T00:32:40.867Z,20.12
2017-06-12T00:32:45.055Z,20.19
2017-06-12T00:32:49.475Z,20.19
2017-06-12T00:32:53.780Z,20.17
2017-06-12T00:32:58.087Z,20.07
2017-06-12T00:33:02.278Z,20.2
2017-06-12T00:33:06.708Z,20.13
2017-06-12T00:33:11.144Z,20.16
2017-06-12T00:33:15.566Z,20.13
2017-06-12T00:33:19.989Z,20.19
2017-06-12T00:33:24.415Z,20.15
2017-06-12T00:33:28.721Z,20.13
2017-06-12T00:33:33.145Z,20.19
2017-06-12T00:33:37.567Z,20.13
2017-06-12T00:33:41.986Z,20.2
2017-06-12T00:33:46.297Z,20.16
2017-06-12T00:33:50.734Z,20.15
2017-06-12T00:33:55.049Z,20.02
2017-06-12T00:33:59.498Z,20.16
2017-06-12T00:34:04.050Z,20.13
2017-06-12T00:34:08.358Z,20.17
2017-06-12T00:34:12.780Z,20.19
2017-06-12T00:34:17.206Z,20.15
2017-06-12T00:34:21.676Z,20.2
2017-06-12T00:34:26.096Z,20.15
2017-06-12T00:34:30.409Z,20.16
2017-06-12T00:34:34.721Z,20.16
2017-06-12T00:34:39.142Z,20.17
2017-06-12T00:34:43.597Z,20.15
2017-06-12T00:34:47.906Z,20.17
2017-06-12T00:34:52.212Z,20.15
2017-06-12T00:34:56.628Z,20.12
2017-06-12T00:35:00.821Z,20.13
2017-06-12T00:35:05.131Z,20.16
2017-06-12T00:35:09.555Z,20.13
2017-06-12T00:35:13.982Z,20.19
2017-06-12T00:35:18.400Z,20.13
2017-06-12T00:35:22.826Z,20.13
2017-06-12T00:35:26.898Z,20.16
2017-06-12T00:35:31.210Z,20.15
2017-06-12T00:35:35.673Z,20.15
2017-06-12T00:35:39.980Z,20.15
2017-06-12T00:35:44.299Z,20.19
2017-06-12T00:35:48.718Z,20.2
2017-06-12T00:35:53.136Z,20.2
2017-06-12T00:35:57.443Z,20.2
2017-06-12T00:36:01.748Z,20.13
2017-06-12T00:36:06.138Z,20.2
2017-06-12T00:36:10.454Z,20.15
2017-06-12T00:36:14.873Z,20.15
2017-06-12T00:36:19.300Z,20.17
2017-06-12T00:36:23.374Z,20.16
2017-06-12T00:36:27.801Z,20.15
2017-06-12T00:36:32.102Z,20.15
2017-06-12T00:36:36.409Z,20.19
2017-06-12T00:36:40.832Z,20.2
2017-06-12T00:36:45.257Z,20.17
2017-06-12T00:36:49.682Z,20.19
2017-06-12T00:36:54.106Z,20.17
2017-06-12T00:36:58.530Z,20.1
2017-06-12T00:37:02.949Z,20.19
2017-06-12T00:37:07.258Z,20.12
2017-06-12T00:37:11.565Z,20.17
2017-06-12T00:37:15.998Z,20.13
2017-06-12T00:37:20.421Z,20.19
2017-06-12T00:37:24.728Z,20.19
2017-06-12T00:37:29.152Z,20.22
2017-06-12T00:37:33.570Z,20.19
2017-06-12T00:37:37.999Z,20.19
2017-06-12T00:37:42.457Z,20.19
2017-06-12T00:37:46.877Z,20.13
2017-06-12T00:37:51.200Z,20.15
2017-06-12T00:37:55.500Z,20.12
2017-06-12T00:37:59.802Z,20.12
2017-06-12T00:38:04.225Z,20.16
2017-06-12T00:38:08.539Z,20.16
2017-06-12T00:38:12.962Z,20.15
2017-06-12T00:38:17.391Z,20.17
2017-06-12T00:38:21.814Z,20.22
2017-06-12T00:38:26.246Z,20.13
2017-06-12T00:38:30.700Z,20.1
2017-06-12T00:38:35.119Z,20.16
2017-06-12T00:38:39.430Z,20.15
2017-06-12T00:38:43.858Z,20.16
2017-06-12T00:38:48.282Z,20.2
2017-06-12T00:38:52.469Z,20.16
2017-06-12T00:38:56.666Z,20.2
2017-06-12T00:39:00.858Z,20.15
2017-06-12T00:39:05.488Z,20.13
2017-06-12T00:39:09.912Z,20.12
2017-06-12T00:39:14.345Z,20.12
2017-06-12T00:39:18.656Z,20.13
2017-06-12T00:39:23.084Z,20.15
2017-06-12T00:39:27.507Z,20.1
2017-06-12T00:39:31.928Z,20.13
2017-06-12T00:39:36.232Z,20.2
2017-06-12T00:39:40.662Z,20.2
2017-06-12T00:39:45.113Z,20.13
2017-06-12T00:39:49.552Z,20.19
2017-06-12T00:39:53.742Z,20.13
2017-06-12T00:39:58.049Z,20.19
2017-06-12T00:40:02.468Z,20.17
2017-06-12T00:40:06.774Z,20.1
2017-06-12T00:40:11.086Z,20.17
2017-06-12T00:40:15.504Z,20.2
2017-06-12T00:40:19.806Z,20.15
2017-06-12T00:40:24.230Z,20.13
2017-06-12T00:40:28.652Z,20.16
2017-06-12T00:40:33.080Z,20.15
2017-06-12T00:40:37.506Z,20.12
2017-06-12T00:40:41.933Z,20.22
2017-06-12T00:40:46.242Z,20.12
2017-06-12T00:40:50.433Z,20.13
2017-06-12T00:40:54.859Z,20.13
2017-06-12T00:40:59.054Z,20.16
2017-06-12T00:41:03.359Z,20.15
2017-06-12T00:41:07.777Z,20.2
2017-06-12T00:41:12.083Z,20.15
2017-06-12T00:41:16.503Z,20.2
2017-06-12T00:41:20.925Z,20.17
2017-06-12T00:41:25.354Z,20.2
2017-06-12T00:41:29.782Z,20.17
2017-06-12T00:41:34.200Z,20.16
2017-06-12T00:41:38.619Z,20.17
2017-06-12T00:41:42.811Z,20.12
2017-06-12T00:41:47.238Z,20.13
2017-06-12T00:41:51.428Z,20.15
2017-06-12T00:41:55.851Z,20.17
2017-06-12T00:42:00.035Z,20.07
2017-06-12T00:42:04.459Z,20.16
2017-06-12T00:42:08.889Z,20.07
2017-06-12T00:42:13.339Z,20.17
2017-06-12T00:42:17.759Z,20.17
2017-06-12T00:42:22.066Z,20.19
2017-06-12T00:42:26.490Z,20.19
2017-06-12T00:42:30.909Z,20.13
2017-06-12T00:42:35.332Z,20.17
2017-06-12T00:42:39.638Z,20.19
2017-06-12T00:42:43.824Z,20.12
2017-06-12T00:42:48.146Z,20.12
2017-06-12T00:42:52.451Z,20.12
2017-06-12T00:42:56.873Z,20.17
2017-06-12T00:43:01.299Z,20.08
2017-06-12T00:43:05.731Z,20.17
2017-06-12T00:43:10.038Z,20.15
2017-06-12T00:43:14.464Z,20.13
2017-06-12T00:43:18.766Z,20.19
2017-06-12T00:43:23.195Z,20.19
2017-06-12T00:43:27.624Z,20.15
2017-06-12T00:43:32.049Z,20.22
2017-06-12T00:43:36.477Z,20.2
2017-06-12T00:43:40.900Z,20.12
2017-06-12T00:43:45.328Z,20.13
2017-06-12T00:43:49.758Z,20.13
2017-06-12T00:43:54.068Z,20.12
2017-06-12T00:43:58.378Z,20.16
2017-06-12T00:44:02.803Z,20.16
2017-06-12T00:44:06.988Z,20.25
2017-06-12T00:44:11.408Z,20.15
2017-06-12T00:44:15.838Z,20.27
2017-06-12T00:44:20.263Z,20.27
2017-06-12T00:44:24.693Z,20.19
2017-06-12T00:44:29.121Z,20.15
2017-06-12T00:44:33.429Z,20.17
2017-06-12T00:44:37.853Z,20.16
2017-06-12T00:44:42.282Z,20.25
2017-06-12T00:44:46.709Z,20.15
2017-06-12T00:44:51.129Z,20.15
2017-06-12T00:44:55.557Z,20.19
2017-06-12T00:44:59.862Z,20.26
2017-06-12T00:45:04.170Z,20.15
2017-06-12T00:45:08.480Z,20.13
2017-06-12T00:45:12.796Z,20.1
2017-06-12T00:45:17.216Z,20.2
2017-06-12T00:45:21.516Z,20.12
2017-06-12T00:45:25.946Z,20.12
2017-06-12T00:45:30.374Z,20.17
2017-06-12T00:45:34.804Z,20.16
2017-06-12T00:45:39.227Z,20.26
2017-06-12T00:45:43.654Z,20.27
2017-06-12T00:45:48.079Z,20.16
2017-06-12T00:45:52.497Z,20.25
2017-06-12T00:45:56.925Z,20.16
2017-06-12T00:46:01.239Z,20.23
2017-06-12T00:46:05.814Z,20.26
2017-06-12T00:46:09.890Z,20.16
2017-06-12T00:46:14.313Z,20.13
2017-06-12T00:46:18.621Z,20.16
2017-06-12T00:46:23.049Z,20.17
2017-06-12T00:46:27.471Z,20.19
2017-06-12T00:46:31.901Z,20.16
2017-06-12T00:46:36.319Z,20.13
2017-06-12T00:46:40.741Z,20.22
2017-06-12T00:46:45.166Z,20.19
2017-06-12T00:46:49.607Z,20.17
2017-06-12T00:46:54.068Z,20.19
2017-06-12T00:46:58.495Z,20.27
2017-06-12T00:47:03.219Z,20.26
2017-06-12T00:47:07.531Z,20.15
2017-06-12T00:47:11.961Z,20.19
2017-06-12T00:47:16.394Z,20.13
2017-06-12T00:47:20.814Z,20.17
2017-06-12T00:47:25.243Z,20.19
2017-06-12T00:47:29.662Z,20.13
2017-06-12T00:47:34.094Z,20.16
2017-06-12T00:47:38.519Z,20.13
2017-06-12T00:47:42.946Z,20.19
2017-06-12T00:47:47.373Z,20.1
2017-06-12T00:47:51.809Z,20.19
2017-06-12T00:47:56.226Z,20.13
2017-06-12T00:48:00.646Z,20.2
2017-06-12T00:48:04.957Z,20.13
2017-06-12T00:48:09.284Z,20.19
2017-06-12T00:48:13.702Z,20.22
2017-06-12T00:48:18.007Z,20.17
2017-06-12T00:48:22.427Z,20.22
2017-06-12T00:48:26.855Z,20.2
2017-06-12T00:48:31.169Z,20.2
2017-06-12T00:48:35.593Z,20.19
2017-06-12T00:48:40.030Z,20.2
2017-06-12T00:48:44.453Z,20.16
2017-06-12T00:48:48.890Z,20.15
2017-06-12T00:48:53.323Z,20.3
2017-06-12T00:48:57.624Z,20.19
2017-06-12T00:49:01.813Z,20.17
2017-06-12T00:49:06.165Z,20.17
2017-06-12T00:49:10.591Z,20.19
2017-06-12T00:49:15.013Z,20.2
2017-06-12T00:49:19.323Z,20.16
2017-06-12T00:49:23.746Z,20.16
2017-06-12T00:49:28.168Z,20.15
2017-06-12T00:49:32.591Z,20.16
2017-06-12T00:49:37.017Z,20.17
2017-06-12T00:49:41.447Z,20.17
2017-06-12T00:49:45.872Z,20.22
2017-06-12T00:49:50.060Z,20.22
2017-06-12T00:49:54.124Z,20.19
2017-06-12T00:49:58.429Z,20.19
2017-06-12T00:50:02.619Z,20.19
2017-06-12T00:50:06.574Z,20.19
2017-06-12T00:50:10.767Z,20.13
2017-06-12T00:50:15.198Z,20.19
2017-06-12T00:50:19.389Z,20.22
2017-06-12T00:50:23.809Z,20.2
2017-06-12T00:50:28.235Z,20.19
2017-06-12T00:50:32.652Z,20.2
2017-06-12T00:50:37.086Z,20.19
2017-06-12T00:50:41.391Z,20.12
2017-06-12T00:50:45.811Z,20.17
2017-06-12T00:50:50.246Z,20.17
2017-06-12T00:50:54.670Z,20.19
2017-06-12T00:50:59.095Z,20.16
2017-06-12T00:51:03.381Z,20.17
2017-06-12T00:51:07.682Z,20.16
2017-06-12T00:51:12.104Z,20.12
2017-06-12T00:51:16.530Z,20.19
2017-06-12T00:51:20.598Z,20.15
2017-06-12T00:51:25.025Z,20.15
2017-06-12T00:51:29.446Z,20.16
2017-06-12T00:51:33.867Z,20.15
2017-06-12T00:51:38.291Z,20.13
2017-06-12T00:51:42.710Z,20.13
2017-06-12T00:51:47.136Z,20.15
2017-06-12T00:51:51.561Z,20.16
2017-06-12T00:51:55.980Z,20.17
2017-06-12T00:52:00.409Z,20.16
2017-06-12T00:52:04.848Z,20.17
2017-06-12T00:52:09.152Z,20.15
2017-06-12T00:52:13.578Z,20.15
2017-06-12T00:52:18.004Z,20.16
2017-06-12T00:52:22.306Z,20.19
2017-06-12T00:52:26.726Z,20.23
2017-06-12T00:52:31.143Z,20.22
2017-06-12T00:52:35.451Z,20.13
2017-06-12T00:52:39.790Z,20.19
2017-06-12T00:52:44.210Z,20.15
2017-06-12T00:52:48.516Z,20.23
2017-06-12T00:52:52.933Z,20.13
2017-06-12T00:52:57.358Z,20.13
2017-06-12T00:53:01.662Z,20.13
2017-06-12T00:53:06.239Z,20.15
2017-06-12T00:53:10.668Z,20.19
2017-06-12T00:53:14.976Z,20.1
2017-06-12T00:53:19.275Z,20.13
2017-06-12T00:53:23.698Z,20.2
2017-06-12T00:53:28.127Z,20.19
2017-06-12T00:53:32.456Z,20.16
2017-06-12T00:53:36.874Z,20.15
2017-06-12T00:53:41.303Z,20.19
2017-06-12T00:53:45.725Z,20.15
2017-06-12T00:53:50.037Z,20.17
2017-06-12T00:53:54.464Z,20.17
2017-06-12T00:53:58.775Z,20.17
2017-06-12T00:54:03.545Z,20.2
2017-06-12T00:54:07.970Z,20.15
2017-06-12T00:54:12.273Z,20.15
2017-06-12T00:54:16.693Z,20.17
2017-06-12T00:54:20.887Z,20.15
2017-06-12T00:54:25.318Z,20.2
2017-06-12T00:54:29.623Z,20.19
2017-06-12T00:54:34.043Z,20.16
2017-06-12T00:54:38.469Z,20.19
2017-06-12T00:54:42.892Z,20.16
2017-06-12T00:54:47.322Z,20.16
2017-06-12T00:54:51.759Z,20.12
2017-06-12T00:54:56.179Z,20.15
2017-06-12T00:55:00.602Z,20.15
2017-06-12T00:55:05.210Z,20.16
2017-06-12T00:55:09.519Z,20.17
2017-06-12T00:55:13.829Z,20.16
2017-06-12T00:55:18.250Z,20.15
2017-06-12T00:55:22.670Z,20.16
2017-06-12T00:55:27.091Z,20.17
2017-06-12T00:55:31.518Z,20.2
2017-06-12T00:55:35.940Z,20.19
2017-06-12T00:55:40.367Z,20.17
2017-06-12T00:55:44.790Z,20.15
2017-06-12T00:55:49.212Z,20.22
2017-06-12T00:55:53.637Z,20.22
2017-06-12T00:55:58.061Z,20.15
2017-06-12T00:56:02.616Z,20.15
2017-06-12T00:56:06.804Z,20.15
2017-06-12T00:56:10.994Z,20.16
2017-06-12T00:56:15.412Z,20.17
2017-06-12T00:56:19.595Z,20.16
2017-06-12T00:56:23.782Z,20.13
2017-06-12T00:56:28.212Z,20.19
2017-06-12T00:56:32.635Z,20.17
2017-06-12T00:56:37.058Z,20.16
2017-06-12T00:56:41.482Z,20.15